createdAt,value
2023-01-19T00:00:39.988Z,60.20
2023-01-19T00:03:15.919Z,62.97
2023-01-19T00:05:46.515Z,60.03
2023-01-19T00:08:16.856Z,62.20
2023-01-19T00:10:46.605Z,64.70
2023-01-19T00:13:14.820Z,62.28
2023-01-19T00:15:41.796Z,63.50
2023-01-19T00:18:10.565Z,62.72
2023-01-19T00:20:37.805Z,58.92
2023-01-19T00:23:04.908Z,54.25
2023-01-19T00:25:31.760Z,61.92
2023-01-19T00:28:00.516Z,53.85
2023-01-19T00:30:28.207Z,61.97
2023-01-19T00:32:54.728Z,61.95
2023-01-19T00:35:21.278Z,53.60
2023-01-19T00:37:48.029Z,53.45
2023-01-19T00:40:14.790Z,62.47
2023-01-19T00:42:41.833Z,50.33
2023-01-19T00:45:20.132Z,49.10
2023-01-19T00:47:48.092Z,58.50
2023-01-19T00:50:16.926Z,60.05
2023-01-19T00:52:44.588Z,49.10
2023-01-19T00:55:13.143Z,43.83
2023-01-19T00:57:40.247Z,47.33
2023-01-19T01:00:11.715Z,48.00
2023-01-19T01:02:40.016Z,44.15
2023-01-19T01:05:07.602Z,42.72
2023-01-19T01:07:40.713Z,45.88
2023-01-19T01:10:13.607Z,38.13
2023-01-19T01:12:40.496Z,37.92
2023-01-19T01:15:08.974Z,37.88
2023-01-19T01:20:07.166Z,38.15
2023-01-19T01:22:33.663Z,34.75
2023-01-19T01:25:00.258Z,28.52
2023-01-19T01:27:26.767Z,22.30
2023-01-19T01:29:53.266Z,25.98
2023-01-19T01:32:19.819Z,27.70
2023-01-19T01:34:46.432Z,19.73
2023-01-19T01:37:12.955Z,22.90
2023-01-19T01:39:39.483Z,21.70
2023-01-19T01:42:16.557Z,20.08
2023-01-19T01:44:58.511Z,19.23
2023-01-19T01:47:44.937Z,21.70
2023-01-19T01:50:27.659Z,16.77
2023-01-19T01:53:09.755Z,19.48
2023-01-19T01:55:42.124Z,19.85
2023-01-19T01:58:11.319Z,16.25
2023-01-19T02:00:58.550Z,17.85
2023-01-19T02:03:26.258Z,14.35
2023-01-19T02:05:57.686Z,17.00
2023-01-19T02:09:21.633Z,13.85
2023-01-19T02:12:07.532Z,15.98
2023-01-19T02:14:37.385Z,15.65
2023-01-19T02:17:04.831Z,19.10
2023-01-19T02:19:39.362Z,17.25
2023-01-19T02:22:15.453Z,18.30
2023-01-19T02:24:42.895Z,16.85
2023-01-19T02:27:11.358Z,18.77
2023-01-19T02:29:38.314Z,15.30
2023-01-19T02:32:05.809Z,16.67
2023-01-19T02:34:32.889Z,14.32
2023-01-19T02:37:18.607Z,12.82
2023-01-19T02:39:50.865Z,8.37
2023-01-19T02:42:23.183Z,14.27
2023-01-19T02:44:53.173Z,15.77
2023-01-19T02:47:19.958Z,14.63
2023-01-19T02:49:58.446Z,17.40
2023-01-19T02:52:25.913Z,15.82
2023-01-19T02:55:02.033Z,13.10
2023-01-19T03:00:52.387Z,11.00
2023-01-19T03:03:54.721Z,12.02
2023-01-19T03:06:36.546Z,13.07
2023-01-19T03:09:26.786Z,10.82
2023-01-19T03:12:05.077Z,12.32
2023-01-19T03:14:38.445Z,10.90
2023-01-19T03:17:08.457Z,12.15
2023-01-19T03:19:42.002Z,12.48
2023-01-19T03:22:17.518Z,11.65
2023-01-19T03:24:46.853Z,13.13
2023-01-19T03:27:20.057Z,11.50
2023-01-19T03:29:57.943Z,13.48
2023-01-19T03:32:31.888Z,12.13
2023-01-19T03:35:01.797Z,12.93
2023-01-19T03:37:31.793Z,12.55
2023-01-19T03:39:58.382Z,13.02
2023-01-19T03:42:27.193Z,13.48
2023-01-19T03:44:56.612Z,11.82
2023-01-19T03:47:23.973Z,12.88
2023-01-19T03:49:53.287Z,14.98
2023-01-19T03:52:28.174Z,13.48
2023-01-19T03:54:54.865Z,13.95
2023-01-19T03:57:22.202Z,16.70
2023-01-19T03:59:49.615Z,15.30
2023-01-19T04:02:16.204Z,16.42
2023-01-19T04:04:42.875Z,13.85
2023-01-19T04:07:10.364Z,19.38
2023-01-19T04:09:36.968Z,14.48
2023-01-19T04:12:04.202Z,17.02
2023-01-19T04:14:30.732Z,19.50
2023-01-19T04:16:57.249Z,14.82
2023-01-19T04:19:23.890Z,18.38
2023-01-19T04:21:50.978Z,19.58
2023-01-19T04:24:18.490Z,19.17
2023-01-19T04:26:45.021Z,19.33
2023-01-19T04:29:11.576Z,19.67
2023-01-19T04:31:38.131Z,22.30
2023-01-19T04:34:04.655Z,23.83
2023-01-19T04:36:31.509Z,23.30
2023-01-19T04:38:58.039Z,20.33
2023-01-19T04:41:24.578Z,19.13
2023-01-19T04:43:51.066Z,24.33
2023-01-19T04:46:17.646Z,26.98
2023-01-19T04:48:44.188Z,26.92
2023-01-19T04:51:10.735Z,22.58
2023-01-19T04:53:37.449Z,23.80
2023-01-19T04:56:04.129Z,28.45
2023-01-19T04:58:30.690Z,21.65
2023-01-19T05:00:57.269Z,23.55
2023-01-19T05:03:25.672Z,21.00
2023-01-19T05:05:53.170Z,25.85
2023-01-19T05:08:19.744Z,24.60
2023-01-19T05:10:47.876Z,25.05
2023-01-19T05:13:14.410Z,23.25
2023-01-19T05:15:40.977Z,21.05
2023-01-19T05:18:07.567Z,26.77
2023-01-19T05:20:34.079Z,25.30
2023-01-19T05:23:01.256Z,23.52
2023-01-19T05:25:28.059Z,20.52
2023-01-19T05:27:54.559Z,22.13
2023-01-19T05:30:21.040Z,25.63
2023-01-19T05:32:47.572Z,23.20
2023-01-19T05:35:16.597Z,21.23
2023-01-19T05:37:43.267Z,24.77
2023-01-19T05:40:10.914Z,19.45
2023-01-19T05:42:37.612Z,20.77
2023-01-19T05:45:05.141Z,18.05
2023-01-19T05:47:32.357Z,18.75
2023-01-19T05:49:58.871Z,18.35
2023-01-19T05:52:25.427Z,17.45
2023-01-19T05:54:52.217Z,20.30
2023-01-19T05:57:19.314Z,19.83
2023-01-19T05:59:45.876Z,21.50
2023-01-19T06:02:12.478Z,18.75
2023-01-19T06:04:39.127Z,16.15
2023-01-19T06:07:07.024Z,16.60
2023-01-19T06:09:33.758Z,18.70
2023-01-19T06:12:00.251Z,14.48
2023-01-19T06:14:28.000Z,17.27
2023-01-19T06:16:54.585Z,18.25
2023-01-19T06:19:21.177Z,16.63
2023-01-19T06:21:49.878Z,17.08
2023-01-19T06:24:16.525Z,14.40
2023-01-19T06:26:43.863Z,14.98
2023-01-19T06:29:12.263Z,13.27
2023-01-19T06:31:38.810Z,13.30
2023-01-19T06:34:05.294Z,12.88
2023-01-19T06:36:31.845Z,12.85
2023-01-19T06:38:58.980Z,18.67
2023-01-19T06:41:26.597Z,17.20
2023-01-19T06:43:53.128Z,17.70
2023-01-19T06:46:19.609Z,13.80
2023-01-19T06:48:48.671Z,14.05
2023-01-19T06:51:15.199Z,11.77
2023-01-19T06:53:41.714Z,14.05
2023-01-19T06:56:09.708Z,14.32
2023-01-19T06:58:36.731Z,13.55
2023-01-19T07:01:06.992Z,12.32
2023-01-19T07:03:36.828Z,13.07
2023-01-19T07:06:06.657Z,13.27
2023-01-19T07:08:37.735Z,15.65
2023-01-19T07:11:25.920Z,14.02
2023-01-19T07:13:55.999Z,15.30
2023-01-19T07:16:23.773Z,13.05
2023-01-19T07:18:51.022Z,14.55
2023-01-19T07:21:17.891Z,13.10
2023-01-19T07:23:44.754Z,15.73
2023-01-19T07:26:11.304Z,14.43
2023-01-19T07:28:37.938Z,13.88
2023-01-19T07:31:05.266Z,16.13
2023-01-19T07:33:31.829Z,12.45
2023-01-19T07:35:58.660Z,15.68
2023-01-19T07:38:25.351Z,11.23
2023-01-19T07:40:51.914Z,15.82
2023-01-19T07:43:18.466Z,17.70
2023-01-19T07:45:45.703Z,15.18
2023-01-19T07:48:12.390Z,13.02
2023-01-19T07:50:39.007Z,14.00
2023-01-19T07:53:07.253Z,13.73
2023-01-19T07:55:33.764Z,15.45
2023-01-19T07:58:00.357Z,15.63
2023-01-19T08:00:27.112Z,16.92
2023-01-19T08:03:02.262Z,14.55
2023-01-19T08:05:29.431Z,18.75
2023-01-19T08:08:00.632Z,17.38
2023-01-19T08:10:28.777Z,17.70
2023-01-19T08:12:56.916Z,16.98
2023-01-19T08:15:24.939Z,15.40
2023-01-19T08:17:59.109Z,15.38
2023-01-19T08:20:27.245Z,17.27
2023-01-19T08:23:00.375Z,18.70
2023-01-19T08:25:36.159Z,14.23
2023-01-19T08:28:04.690Z,15.95
2023-01-19T08:30:31.479Z,15.32
2023-01-19T08:33:04.286Z,14.27
2023-01-19T08:35:32.258Z,16.20
2023-01-19T08:38:01.522Z,13.68
2023-01-19T08:40:34.796Z,19.27
2023-01-19T08:43:07.954Z,17.75
2023-01-19T08:45:35.784Z,17.65
2023-01-19T08:48:02.904Z,16.77
2023-01-19T08:50:31.889Z,16.63
2023-01-19T08:53:03.651Z,14.75
2023-01-19T08:55:30.630Z,18.33
2023-01-19T08:58:00.198Z,19.58
2023-01-19T09:00:27.241Z,19.45
2023-01-19T09:02:55.098Z,18.70
2023-01-19T09:05:22.406Z,17.02
2023-01-19T09:07:49.161Z,16.08
2023-01-19T09:10:16.855Z,18.85
2023-01-19T09:12:45.002Z,18.77
2023-01-19T09:15:14.206Z,14.55
2023-01-19T09:17:44.035Z,20.23
2023-01-19T09:20:10.914Z,16.15
2023-01-19T09:22:39.728Z,14.25
2023-01-19T09:25:07.973Z,15.90
2023-01-19T09:27:35.109Z,14.05
2023-01-19T09:30:02.071Z,15.88
2023-01-19T09:32:28.611Z,13.07
2023-01-19T09:34:56.606Z,17.30
2023-01-19T09:37:23.109Z,14.88
2023-01-19T09:39:49.659Z,13.05
2023-01-19T09:42:46.164Z,15.80
2023-01-19T09:45:22.181Z,14.32
2023-01-19T09:47:50.147Z,11.85
2023-01-19T09:50:26.424Z,12.30
2023-01-19T09:53:04.540Z,13.07
2023-01-19T09:55:31.270Z,13.52
2023-01-19T09:57:58.173Z,13.63
2023-01-19T10:00:28.038Z,16.05
2023-01-19T10:03:15.701Z,15.05
2023-01-19T10:05:50.877Z,15.73
2023-01-19T10:08:30.068Z,12.82
2023-01-19T10:10:58.646Z,15.02
2023-01-19T10:13:49.834Z,10.60
2023-01-19T10:16:37.737Z,12.45
2023-01-19T10:19:29.454Z,14.75
2023-01-19T10:21:58.805Z,11.40
2023-01-19T10:24:27.599Z,12.93
2023-01-19T10:26:55.841Z,11.95
2023-01-19T10:29:37.784Z,11.07
2023-01-19T10:32:19.975Z,12.57
2023-01-19T10:34:47.778Z,13.45
2023-01-19T10:37:18.218Z,15.07
2023-01-19T10:39:57.195Z,13.32
2023-01-19T10:42:23.733Z,14.75
2023-01-19T10:44:50.424Z,13.65
2023-01-19T10:47:19.364Z,11.07
2023-01-19T10:49:47.232Z,14.02
2023-01-19T10:52:25.706Z,12.25
2023-01-19T10:54:52.318Z,14.68
2023-01-19T10:57:32.199Z,14.55
2023-01-19T10:59:58.971Z,13.32
2023-01-19T11:02:32.704Z,13.18
2023-01-19T11:05:01.912Z,10.48
2023-01-19T11:07:33.656Z,17.80
2023-01-19T11:10:24.756Z,14.15
2023-01-19T11:13:12.648Z,12.32
2023-01-19T11:15:46.857Z,16.67
2023-01-19T11:18:33.553Z,12.20
2023-01-19T11:21:04.314Z,11.88
2023-01-19T11:23:50.013Z,11.77
2023-01-19T11:26:31.999Z,11.87
2023-01-19T11:29:00.917Z,10.10
2023-01-19T11:31:31.270Z,11.13
2023-01-19T11:34:00.595Z,12.85
2023-01-19T11:36:30.484Z,10.93
2023-01-19T11:39:14.001Z,10.63
2023-01-19T11:41:41.347Z,12.48
2023-01-19T11:44:22.698Z,10.88
2023-01-19T11:46:55.762Z,12.23
2023-01-19T11:49:26.448Z,12.05
2023-01-19T11:52:02.240Z,13.00
2023-01-19T11:54:41.800Z,11.93
2023-01-19T11:57:17.195Z,14.18
2023-01-19T11:59:44.737Z,9.63
2023-01-19T12:02:45.254Z,11.77
2023-01-19T12:05:15.940Z,12.80
2023-01-19T12:07:45.743Z,12.15
2023-01-19T12:10:28.217Z,11.68
2023-01-19T12:12:56.598Z,9.82
2023-01-19T12:15:33.307Z,9.00
2023-01-19T12:18:02.572Z,12.60
2023-01-19T12:20:35.178Z,12.85
2023-01-19T12:23:16.354Z,15.57
2023-01-19T12:25:53.914Z,14.23
2023-01-19T12:28:27.444Z,12.15
2023-01-19T12:30:54.431Z,12.15
2023-01-19T12:33:34.091Z,15.20
2023-01-19T12:36:03.015Z,12.20
2023-01-19T12:38:41.654Z,12.27
2023-01-19T12:41:28.098Z,14.35
2023-01-19T12:44:09.838Z,10.88
2023-01-19T12:46:47.081Z,12.75
2023-01-19T12:49:46.933Z,11.05
2023-01-19T12:52:51.499Z,10.52
2023-01-19T12:55:24.234Z,11.68
2023-01-19T12:58:03.714Z,15.65
2023-01-19T13:00:34.983Z,11.95
2023-01-19T13:03:02.712Z,9.82
2023-01-19T13:05:33.168Z,11.32
2023-01-19T13:08:03.044Z,11.60
2023-01-19T13:11:09.730Z,11.05
2023-01-19T13:14:05.033Z,8.93
2023-01-19T13:16:31.478Z,9.05
2023-01-19T13:19:14.352Z,11.63
2023-01-19T13:21:45.984Z,12.80
2023-01-19T13:24:23.559Z,11.15
2023-01-19T13:26:50.022Z,10.00
2023-01-19T13:29:34.467Z,15.43
2023-01-19T13:32:05.215Z,11.00
2023-01-19T13:34:46.858Z,11.43
2023-01-19T13:37:19.957Z,10.60
2023-01-19T13:39:50.219Z,11.52
2023-01-19T13:42:29.428Z,12.90
2023-01-19T13:45:00.119Z,10.77
2023-01-19T13:47:39.527Z,12.85
2023-01-19T13:50:06.752Z,9.23
2023-01-19T13:52:33.281Z,12.35
2023-01-19T13:55:03.654Z,12.27
2023-01-19T13:57:39.653Z,8.60
2023-01-19T14:00:12.609Z,10.85
2023-01-19T14:02:40.619Z,11.40
2023-01-19T14:05:15.405Z,10.73
2023-01-19T14:07:42.200Z,11.77
2023-01-19T14:10:14.332Z,12.48
2023-01-19T14:12:54.472Z,11.00
2023-01-19T14:15:25.319Z,12.05
2023-01-19T14:18:11.952Z,11.38
2023-01-19T14:23:07.240Z,10.50
2023-01-19T14:25:39.350Z,13.07
2023-01-19T14:28:39.450Z,11.55
2023-01-19T14:31:23.920Z,11.93
2023-01-19T14:33:53.076Z,11.00
2023-01-19T14:36:34.106Z,13.25
2023-01-19T14:39:01.797Z,12.93
2023-01-19T14:41:38.026Z,10.52
2023-01-19T14:46:38.645Z,8.93
2023-01-19T14:49:06.640Z,13.38
2023-01-19T14:51:33.200Z,11.65
2023-01-19T14:54:01.600Z,14.05
2023-01-19T14:56:32.883Z,11.20
2023-01-19T14:59:01.660Z,11.90
2023-01-19T15:01:28.589Z,9.80
2023-01-19T15:03:58.989Z,11.70
2023-01-19T15:06:26.600Z,11.82
2023-01-19T15:08:53.931Z,12.95
2023-01-19T15:11:34.543Z,12.60
2023-01-19T15:14:02.437Z,13.90
2023-01-19T15:16:31.552Z,13.48
2023-01-19T15:18:58.109Z,21.65
2023-01-19T15:21:26.701Z,22.83
2023-01-19T15:23:58.488Z,22.52
2023-01-19T15:26:26.560Z,17.38
2023-01-19T15:28:53.653Z,24.73
2023-01-19T15:31:22.704Z,16.35
2023-01-19T15:33:49.964Z,17.38
2023-01-19T15:36:18.731Z,12.48
2023-01-19T15:38:46.388Z,16.80
2023-01-19T15:41:24.085Z,19.00
2023-01-19T15:43:50.807Z,15.30
2023-01-19T15:46:20.658Z,28.67
2023-01-19T15:48:47.874Z,21.38
2023-01-19T15:51:16.638Z,21.80
2023-01-19T15:53:44.874Z,43.83
2023-01-19T15:56:19.649Z,36.83
2023-01-19T15:58:46.562Z,37.35
2023-01-19T16:01:15.261Z,32.28
2023-01-19T16:03:42.359Z,24.75
2023-01-19T16:06:09.684Z,25.10
2023-01-19T16:08:37.258Z,22.20
2023-01-19T16:11:08.347Z,17.23
2023-01-19T16:13:35.135Z,19.98
2023-01-19T16:16:06.216Z,26.13
2023-01-19T16:18:33.400Z,13.85
2023-01-19T16:21:00.848Z,21.73
2023-01-19T16:23:27.399Z,22.10
2023-01-19T16:26:07.968Z,14.65
2023-01-19T16:28:38.247Z,22.00
2023-01-19T16:31:04.894Z,19.83
2023-01-19T16:33:31.491Z,16.13
2023-01-19T16:35:58.220Z,19.85
2023-01-19T16:38:24.820Z,19.90
2023-01-19T16:40:51.383Z,16.15
2023-01-19T16:43:18.708Z,19.00
2023-01-19T16:46:02.885Z,19.48
2023-01-19T16:48:30.723Z,19.42
2023-01-19T16:51:07.038Z,18.90
2023-01-19T16:53:35.386Z,25.48
2023-01-19T16:56:10.502Z,25.48
2023-01-19T16:58:40.483Z,26.38
2023-01-19T17:01:14.897Z,26.77
2023-01-19T17:03:42.676Z,22.67
2023-01-19T17:06:11.262Z,19.98
2023-01-19T17:08:38.696Z,120.60
2023-01-19T17:11:20.888Z,150.43
2023-01-19T17:13:54.803Z,70.35
2023-01-19T17:16:22.871Z,33.67
2023-01-19T17:18:49.720Z,25.15
2023-01-19T17:21:18.094Z,28.25
2023-01-19T17:23:47.052Z,22.08
2023-01-19T17:26:13.966Z,26.85
2023-01-19T17:28:40.980Z,29.30
2023-01-19T17:31:21.140Z,22.83
2023-01-19T17:33:49.613Z,21.15
2023-01-19T17:36:22.442Z,23.90
2023-01-19T17:38:50.173Z,29.88
2023-01-19T17:41:18.938Z,26.85
2023-01-19T17:43:45.641Z,23.95
2023-01-19T17:46:12.701Z,25.70
2023-01-19T17:48:39.934Z,23.58
2023-01-19T17:51:11.682Z,28.63
2023-01-19T17:53:39.788Z,31.85
2023-01-19T17:56:14.664Z,26.42
2023-01-19T17:58:42.135Z,35.40
2023-01-19T18:01:09.975Z,36.13
2023-01-19T18:03:37.004Z,23.75
2023-01-19T18:06:03.803Z,28.42
2023-01-19T18:08:30.626Z,27.80
2023-01-19T18:10:58.965Z,33.80
2023-01-19T18:13:26.439Z,37.70
2023-01-19T18:16:03.361Z,37.33
2023-01-19T18:18:30.952Z,44.28
2023-01-19T18:21:08.146Z,40.47
2023-01-19T18:23:35.169Z,44.92
2023-01-19T18:26:04.543Z,40.53
2023-01-19T18:28:32.512Z,35.05
2023-01-19T18:30:59.559Z,34.80
2023-01-19T18:33:26.581Z,28.35
2023-01-19T18:35:53.559Z,33.90
2023-01-19T18:38:20.560Z,35.55
2023-01-19T18:40:47.174Z,41.13
2023-01-19T18:43:14.125Z,38.60
2023-01-19T18:45:42.277Z,47.08
2023-01-19T18:48:09.712Z,43.13
2023-01-19T18:50:37.940Z,41.63
2023-01-19T18:53:05.478Z,39.35
2023-01-19T18:55:32.018Z,34.22
2023-01-19T18:57:58.549Z,50.83
2023-01-19T19:00:25.107Z,57.83
2023-01-19T19:02:51.674Z,52.95
2023-01-19T19:05:33.438Z,67.20
2023-01-19T19:07:59.990Z,84.10
2023-01-19T19:10:26.566Z,84.57
2023-01-19T19:12:53.197Z,73.50
2023-01-19T19:15:19.744Z,82.30
2023-01-19T19:17:46.369Z,90.57
2023-01-19T19:20:13.276Z,87.18
2023-01-19T19:22:40.159Z,83.38
2023-01-19T19:25:06.867Z,98.20
2023-01-19T19:27:33.802Z,81.63
2023-01-19T19:30:00.391Z,97.63
2023-01-19T19:32:27.059Z,90.28
2023-01-19T19:34:53.729Z,101.00
2023-01-19T19:37:20.336Z,112.75
2023-01-19T19:39:48.049Z,85.13
2023-01-19T19:42:14.764Z,80.43
2023-01-19T19:44:41.599Z,77.75
2023-01-19T19:47:08.246Z,77.55
2023-01-19T19:49:34.801Z,76.78
2023-01-19T19:52:01.402Z,73.93
2023-01-19T19:54:27.964Z,90.32
2023-01-19T19:56:54.721Z,67.72
2023-01-19T19:59:21.449Z,63.17
2023-01-19T20:01:50.039Z,79.47
2023-01-19T20:04:20.506Z,59.65
2023-01-19T20:06:48.632Z,65.10
2023-01-19T20:09:16.550Z,64.75
2023-01-19T20:11:45.417Z,61.13
2023-01-19T20:14:13.808Z,58.75
2023-01-19T20:16:40.552Z,59.78
2023-01-19T20:19:08.125Z,65.13
2023-01-19T20:21:41.799Z,66.53
2023-01-19T20:24:13.909Z,64.20
2023-01-19T20:26:44.147Z,77.20
2023-01-19T20:29:12.338Z,59.50
2023-01-19T20:31:43.536Z,68.57
2023-01-19T20:34:11.824Z,63.75
2023-01-19T20:36:38.671Z,66.78
2023-01-19T20:39:10.468Z,58.15
2023-01-19T20:41:43.519Z,54.90
2023-01-19T20:44:15.336Z,52.92
2023-01-19T20:46:42.246Z,59.53
2023-01-19T20:49:09.228Z,62.80
2023-01-19T20:51:38.864Z,72.25
2023-01-19T20:54:05.433Z,63.00
2023-01-19T20:56:31.927Z,65.53
2023-01-19T20:58:59.552Z,66.53
2023-01-19T21:01:26.374Z,60.53
2023-01-19T21:03:53.720Z,54.58
2023-01-19T21:06:22.814Z,61.97
2023-01-19T21:08:52.220Z,126.90
2023-01-19T21:11:21.206Z,99.90
2023-01-19T21:13:50.793Z,74.07
2023-01-19T21:16:17.827Z,80.72
2023-01-19T21:18:44.350Z,86.43
2023-01-19T21:21:28.420Z,84.38
2023-01-19T21:23:57.753Z,103.00
2023-01-19T21:26:24.566Z,123.80
2023-01-19T21:28:51.189Z,97.65
2023-01-19T21:31:18.423Z,96.90
2023-01-19T21:33:45.352Z,79.30
2023-01-19T21:36:12.057Z,94.85
2023-01-19T21:38:39.106Z,94.05
2023-01-19T21:41:12.786Z,81.88
2023-01-19T21:43:41.912Z,89.95
2023-01-19T21:46:23.744Z,89.07
2023-01-19T21:48:50.260Z,93.78
2023-01-19T21:51:16.933Z,80.00
2023-01-19T21:53:44.840Z,100.00
2023-01-19T21:56:11.653Z,80.47
2023-01-19T21:58:38.737Z,88.93
2023-01-19T22:01:11.018Z,84.50
2023-01-19T22:03:37.692Z,80.75
2023-01-19T22:06:06.817Z,87.75
2023-01-19T22:08:34.410Z,87.93
2023-01-19T22:11:09.020Z,111.60
2023-01-19T22:13:36.233Z,103.55
2023-01-19T22:16:04.476Z,106.22
2023-01-19T22:18:31.240Z,84.93
2023-01-19T22:21:09.697Z,104.85
2023-01-19T22:23:36.820Z,112.88
2023-01-19T22:26:04.422Z,75.93
2023-01-19T22:28:31.688Z,82.38
2023-01-19T22:31:11.174Z,75.20
2023-01-19T22:33:37.966Z,44.47
2023-01-19T22:36:27.569Z,76.35
2023-01-19T22:38:55.476Z,88.38
2023-01-19T22:41:27.811Z,86.60
2023-01-19T22:43:56.616Z,82.47
2023-01-19T22:46:25.597Z,82.90
2023-01-19T22:48:52.817Z,75.35
2023-01-19T22:51:20.842Z,73.60
2023-01-19T22:53:47.656Z,82.15
2023-01-19T22:56:23.166Z,77.03
2023-01-19T22:58:50.354Z,55.17
2023-01-19T23:01:20.568Z,36.88
2023-01-19T23:03:47.589Z,70.75
2023-01-19T23:06:17.129Z,72.35
2023-01-19T23:08:43.927Z,76.10
2023-01-19T23:11:15.843Z,74.68
2023-01-19T23:13:42.907Z,68.22
2023-01-19T23:16:10.652Z,65.10
2023-01-19T23:18:37.582Z,70.70
2023-01-19T23:21:11.377Z,59.58
2023-01-19T23:23:38.434Z,69.35
2023-01-19T23:26:08.007Z,68.35
2023-01-19T23:28:34.743Z,61.55
2023-01-19T23:31:01.472Z,66.28
2023-01-19T23:33:28.064Z,68.80
2023-01-19T23:35:55.597Z,72.35
2023-01-19T23:38:22.639Z,69.13
2023-01-19T23:40:49.209Z,68.75
2023-01-19T23:43:16.120Z,74.00
2023-01-19T23:45:42.604Z,70.10
2023-01-19T23:48:09.123Z,76.60
2023-01-19T23:50:39.608Z,71.80
2023-01-19T23:53:06.390Z,74.47
2023-01-19T23:55:32.860Z,73.15
2023-01-19T23:57:59.367Z,69.07
